createdAt,value
2018-06-17T00:01:41.401Z,29.60
2018-06-17T00:03:46.015Z,29.00
2018-06-17T00:05:50.704Z,29.70
2018-06-17T00:07:55.531Z,29.80
2018-06-17T00:10:00.112Z,29.80
2018-06-17T00:12:05.022Z,30.10
2018-06-17T00:14:09.668Z,28.50
2018-06-17T00:16:14.660Z,28.80
2018-06-17T00:20:23.487Z,29.10
2018-06-17T00:22:28.098Z,30.80
2018-06-17T00:24:32.784Z,29.60
2018-06-17T00:26:37.397Z,29.70
2018-06-17T00:28:42.143Z,31.50
2018-06-17T00:30:46.768Z,31.10
2018-06-17T00:32:52.157Z,31.70
2018-06-17T00:34:56.719Z,31.90
2018-06-17T00:37:01.472Z,32.30
2018-06-17T00:39:09.127Z,31.50
2018-06-17T00:41:13.748Z,31.70
2018-06-17T00:43:18.381Z,30.80
2018-06-17T00:45:23.045Z,30.40
2018-06-17T00:47:27.613Z,30.90
2018-06-17T00:49:32.310Z,31.00
2018-06-17T00:51:36.895Z,32.90
2018-06-17T00:53:41.708Z,34.00
2018-06-17T00:55:46.267Z,33.90
2018-06-17T00:57:52.779Z,34.30
2018-06-17T00:59:57.364Z,34.20
2018-06-17T01:02:02.165Z,34.80
2018-06-17T01:04:06.794Z,36.20
2018-06-17T01:06:11.566Z,36.80
2018-06-17T01:08:16.138Z,37.50
2018-06-17T01:10:20.797Z,38.00
2018-06-17T01:12:25.485Z,38.30
2018-06-17T01:14:30.338Z,39.10
2018-06-17T01:16:35.044Z,38.70
2018-06-17T01:18:39.751Z,39.10
2018-06-17T01:20:44.418Z,37.20
2018-06-17T01:22:49.017Z,38.10
2018-06-17T01:24:53.738Z,38.70
2018-06-17T01:26:58.305Z,40.20
2018-06-17T01:29:02.917Z,39.80
2018-06-17T01:31:07.547Z,39.60
2018-06-17T01:33:12.295Z,40.40
2018-06-17T01:35:16.882Z,40.80
2018-06-17T01:37:21.826Z,41.20
2018-06-17T01:39:26.491Z,41.80
2018-06-17T01:41:31.250Z,41.30
2018-06-17T01:43:35.925Z,43.60
2018-06-17T01:45:40.660Z,44.30
2018-06-17T01:47:45.348Z,44.90
2018-06-17T01:49:50.069Z,46.30
2018-06-17T01:51:54.774Z,46.10
2018-06-17T01:53:59.517Z,46.60
2018-06-17T01:56:04.148Z,46.10
2018-06-17T01:58:08.904Z,46.30
2018-06-17T02:02:17.631Z,48.20
2018-06-17T02:04:27.342Z,47.50
2018-06-17T02:06:37.180Z,48.30
2018-06-17T02:08:50.019Z,48.40
2018-06-17T02:10:59.844Z,48.30
2018-06-17T02:13:04.572Z,48.30
2018-06-17T02:15:09.320Z,48.40
2018-06-17T02:17:14.020Z,48.50
2018-06-17T02:19:18.680Z,48.70
2018-06-17T02:21:23.287Z,48.70
2018-06-17T02:23:27.988Z,48.90
2018-06-17T02:25:33.464Z,49.30
2018-06-17T02:27:38.146Z,48.70
2018-06-17T02:29:42.760Z,49.10
2018-06-17T02:31:47.502Z,49.70
2018-06-17T02:33:52.339Z,50.10
2018-06-17T02:35:57.081Z,50.10
2018-06-17T02:38:01.708Z,50.70
2018-06-17T02:40:06.591Z,51.60
2018-06-17T02:42:11.156Z,51.30
2018-06-17T02:44:15.832Z,51.30
2018-06-17T02:48:32.215Z,51.20
2018-06-17T02:50:41.900Z,51.50
2018-06-17T02:52:51.740Z,51.80
2018-06-17T02:54:56.539Z,53.20
2018-06-17T02:57:01.269Z,53.10
2018-06-17T02:59:05.834Z,54.30
2018-06-17T03:01:10.400Z,55.20
2018-06-17T03:03:14.951Z,56.20
2018-06-17T03:05:19.755Z,58.00
2018-06-17T03:07:24.355Z,59.80
2018-06-17T03:09:29.073Z,60.60
2018-06-17T03:11:33.667Z,61.50
2018-06-17T03:13:38.337Z,62.50
2018-06-17T03:15:42.947Z,63.00
2018-06-17T03:17:47.615Z,62.80
2018-06-17T03:19:52.301Z,62.70
2018-06-17T03:21:56.981Z,62.90
2018-06-17T03:24:01.590Z,62.90
2018-06-17T03:26:11.475Z,62.90
2018-06-17T03:28:21.341Z,63.00
2018-06-17T03:30:31.350Z,63.50
2018-06-17T03:32:41.217Z,63.90
2018-06-17T03:34:47.945Z,64.70
2018-06-17T03:36:52.633Z,65.10
2018-06-17T03:38:57.385Z,65.70
2018-06-17T03:41:02.133Z,66.30
2018-06-17T03:43:06.926Z,66.50
2018-06-17T03:45:11.659Z,67.10
2018-06-17T03:47:16.271Z,67.50
2018-06-17T03:49:20.985Z,67.90
2018-06-17T03:51:25.624Z,68.30
2018-06-17T03:53:30.374Z,68.30
2018-06-17T03:55:35.012Z,68.50
2018-06-17T03:57:39.669Z,68.60
2018-06-17T03:59:44.305Z,69.30
2018-06-17T04:01:49.088Z,69.40
2018-06-17T04:05:57.953Z,72.80
2018-06-17T04:08:02.563Z,73.70
2018-06-17T04:10:07.354Z,75.30
2018-06-17T04:12:12.328Z,75.50
2018-06-17T04:14:16.951Z,76.50
2018-06-17T04:16:21.757Z,78.30
2018-06-17T04:18:26.447Z,79.00
2018-06-17T04:20:31.077Z,79.50
2018-06-17T04:22:35.860Z,80.50
2018-06-17T04:24:40.456Z,80.60
2018-06-17T04:26:45.222Z,80.80
2018-06-17T04:28:49.827Z,80.60
2018-06-17T04:30:54.559Z,81.80
2018-06-17T04:32:59.134Z,81.70
2018-06-17T04:35:03.976Z,82.20
2018-06-17T04:37:08.662Z,84.50
2018-06-17T04:39:13.372Z,83.90
2018-06-17T04:41:18.469Z,84.90
2018-06-17T04:43:23.087Z,84.30
2018-06-17T04:45:27.885Z,85.50
2018-06-17T04:47:32.567Z,87.30
2018-06-17T04:49:37.279Z,88.00
2018-06-17T04:51:41.922Z,88.40
2018-06-17T04:53:46.595Z,89.30
2018-06-17T04:55:51.238Z,89.70
2018-06-17T04:57:55.955Z,90.10
2018-06-17T05:00:00.595Z,90.20
2018-06-17T05:02:05.709Z,90.10
2018-06-17T05:04:10.448Z,89.50
2018-06-17T05:06:15.296Z,89.60
2018-06-17T05:08:19.882Z,89.50
2018-06-17T05:10:24.776Z,89.40
2018-06-17T05:12:29.720Z,88.80
2018-06-17T05:14:35.498Z,88.50
2018-06-17T05:16:40.150Z,88.80
2018-06-17T05:18:44.984Z,88.70
2018-06-17T05:20:49.639Z,88.30
2018-06-17T05:22:54.464Z,87.20
2018-06-17T05:24:59.083Z,86.80
2018-06-17T05:27:03.977Z,86.40
2018-06-17T05:29:08.598Z,85.60
2018-06-17T05:31:13.460Z,84.80
2018-06-17T05:33:18.082Z,84.50
2018-06-17T05:35:24.054Z,83.20
2018-06-17T05:37:28.726Z,84.60
2018-06-17T05:39:33.682Z,84.30
2018-06-17T05:41:38.409Z,84.60
2018-06-17T05:43:43.055Z,80.10
2018-06-17T05:45:47.729Z,81.40
2018-06-17T05:47:52.577Z,80.20
2018-06-17T05:49:57.175Z,80.10
2018-06-17T05:52:02.103Z,81.30
2018-06-17T05:54:06.905Z,81.20
2018-06-17T05:56:12.955Z,81.10
2018-06-17T05:58:17.541Z,81.60
2018-06-17T06:00:22.151Z,80.60
2018-06-17T06:02:27.080Z,79.70
2018-06-17T06:04:31.656Z,79.70
2018-06-17T06:06:36.527Z,78.30
2018-06-17T06:08:41.265Z,76.20
2018-06-17T06:10:45.904Z,74.30
2018-06-17T06:12:50.644Z,74.50
2018-06-17T06:14:55.337Z,73.90
2018-06-17T06:16:59.985Z,74.60
2018-06-17T06:19:04.756Z,72.40
2018-06-17T06:21:09.682Z,63.20
2018-06-17T06:23:15.659Z,65.20
2018-06-17T06:25:20.664Z,62.50
2018-06-17T06:27:25.618Z,64.10
2018-06-17T06:29:30.322Z,65.60
2018-06-17T06:31:34.968Z,65.60
2018-06-17T06:33:39.618Z,62.60
2018-06-17T06:35:44.614Z,57.20
2018-06-17T06:37:49.394Z,54.10
2018-06-17T06:42:15.164Z,57.00
2018-06-17T06:44:20.300Z,55.60
2018-06-17T06:46:27.003Z,53.30
2018-06-17T06:48:31.806Z,56.00
2018-06-17T06:50:36.456Z,56.30
2018-06-17T06:52:42.584Z,56.80
2018-06-17T06:54:55.144Z,53.40
2018-06-17T06:57:03.071Z,53.30
2018-06-17T06:59:07.748Z,52.30
2018-06-17T07:01:14.495Z,49.20
2018-06-17T07:03:34.929Z,47.90
2018-06-17T07:05:50.703Z,53.90
2018-06-17T07:08:06.477Z,51.70
2018-06-17T07:10:24.926Z,52.00
2018-06-17T07:12:30.027Z,55.50
2018-06-17T07:14:34.684Z,52.00
2018-06-17T07:16:52.276Z,44.60
2018-06-17T07:18:57.045Z,47.00
2018-06-17T07:21:01.777Z,41.50
2018-06-17T07:23:06.206Z,39.20
2018-06-17T07:25:21.257Z,40.90
2018-06-17T07:27:36.755Z,40.30
2018-06-17T07:29:43.975Z,36.50
2018-06-17T07:31:48.601Z,30.70
2018-06-17T07:33:54.290Z,34.30
2018-06-17T07:36:02.120Z,32.70
2018-06-17T07:38:06.899Z,34.20
2018-06-17T07:40:22.255Z,37.30
2018-06-17T07:42:27.227Z,36.60
2018-06-17T07:44:31.567Z,26.70
2018-06-17T07:46:36.099Z,26.40
2018-06-17T07:49:49.994Z,27.10
2018-06-17T07:52:09.616Z,26.30
2018-06-17T07:54:14.172Z,29.10
2018-06-17T07:56:18.593Z,26.50
2018-06-17T07:58:23.092Z,27.20
2018-06-17T08:00:27.582Z,27.90
2018-06-17T08:02:31.999Z,23.20
2018-06-17T08:04:36.427Z,21.40
2018-06-17T08:06:40.866Z,24.30
2018-06-17T08:08:45.199Z,22.80
2018-06-17T08:10:51.068Z,24.40
2018-06-17T08:12:55.584Z,22.90
2018-06-17T08:14:59.969Z,27.10
2018-06-17T08:17:30.631Z,26.60
2018-06-17T08:19:38.030Z,20.00
2018-06-17T08:21:42.639Z,18.90
2018-06-17T08:23:47.288Z,19.40
2018-06-17T08:25:51.933Z,19.40
2018-06-17T08:27:57.030Z,17.30
2018-06-17T08:30:01.519Z,22.10
2018-06-17T08:32:11.296Z,23.70
2018-06-17T08:34:16.081Z,19.40
2018-06-17T08:36:21.255Z,15.80
2018-06-17T08:38:25.656Z,13.30
2018-06-17T08:40:30.144Z,15.80
2018-06-17T08:42:34.747Z,12.90
2018-06-17T08:44:39.275Z,14.20
2018-06-17T08:46:44.396Z,15.80
2018-06-17T08:48:48.910Z,14.20
2018-06-17T08:50:54.218Z,16.00
2018-06-17T08:52:58.765Z,15.60
2018-06-17T08:55:03.128Z,14.90
2018-06-17T08:57:07.576Z,20.60
2018-06-17T08:59:11.929Z,15.80
2018-06-17T09:01:16.349Z,16.10
2018-06-17T09:03:20.757Z,15.70
2018-06-17T09:05:25.200Z,11.80
2018-06-17T09:07:29.518Z,12.40
2018-06-17T09:09:33.968Z,12.90
2018-06-17T09:11:38.331Z,9.00
2018-06-17T09:13:42.711Z,14.70
2018-06-17T09:15:47.085Z,14.30
2018-06-17T09:17:51.561Z,12.80
2018-06-17T09:19:55.927Z,13.00
2018-06-17T09:24:04.332Z,11.00
2018-06-17T09:26:08.776Z,12.80
2018-06-17T09:28:13.092Z,15.40
2018-06-17T09:30:17.926Z,13.60
2018-06-17T09:32:22.327Z,14.90
2018-06-17T09:34:26.677Z,16.70
2018-06-17T09:36:31.006Z,16.10
2018-06-17T09:38:35.441Z,16.30
2018-06-17T09:40:39.809Z,16.20
2018-06-17T09:42:44.185Z,15.50
2018-06-17T09:44:48.583Z,14.60
2018-06-17T09:46:53.041Z,16.50
2018-06-17T09:48:57.386Z,16.10
2018-06-17T09:51:01.811Z,15.40
2018-06-17T09:55:10.112Z,17.20
2018-06-17T09:57:14.466Z,18.90
2018-06-17T09:59:18.864Z,16.90
2018-06-17T10:01:23.187Z,18.40
2018-06-17T10:03:27.582Z,17.70
2018-06-17T10:05:31.959Z,16.30
2018-06-17T10:07:36.390Z,15.50
2018-06-17T10:09:53.308Z,14.10
2018-06-17T10:11:57.692Z,16.60
2018-06-17T10:14:02.354Z,15.30
2018-06-17T10:16:07.124Z,13.60
2018-06-17T10:18:12.313Z,14.70
2018-06-17T10:20:16.933Z,13.90
2018-06-17T10:22:21.760Z,16.30
2018-06-17T10:24:26.378Z,11.90
2018-06-17T10:26:31.058Z,10.70
2018-06-17T10:28:36.033Z,10.40
2018-06-17T10:30:42.109Z,13.40
2018-06-17T10:32:47.649Z,10.20
2018-06-17T10:34:52.338Z,11.20
2018-06-17T10:36:56.947Z,8.80
2018-06-17T10:39:01.606Z,10.20
2018-06-17T10:41:06.256Z,11.70
2018-06-17T10:43:14.028Z,10.50
2018-06-17T10:45:18.565Z,10.60
2018-06-17T10:47:23.229Z,9.70
2018-06-17T10:49:27.787Z,10.50
2018-06-17T10:51:32.350Z,11.40
2018-06-17T10:53:36.991Z,13.70
2018-06-17T10:55:43.730Z,13.90
2018-06-17T10:57:48.279Z,13.80
2018-06-17T10:59:52.910Z,13.30
2018-06-17T11:01:57.445Z,8.70
2018-06-17T11:04:02.836Z,12.00
2018-06-17T11:06:07.400Z,10.80
2018-06-17T11:08:12.019Z,16.00
2018-06-17T11:10:16.650Z,15.40
2018-06-17T11:12:22.372Z,14.60
2018-06-17T11:14:26.971Z,13.60
2018-06-17T11:16:31.689Z,14.40
2018-06-17T11:18:36.417Z,14.30
2018-06-17T11:20:43.505Z,14.70
2018-06-17T11:22:48.391Z,12.80
2018-06-17T11:24:52.952Z,12.40
2018-06-17T11:26:57.724Z,11.70
2018-06-17T11:29:02.363Z,8.20
2018-06-17T11:31:07.017Z,12.00
2018-06-17T11:33:11.644Z,9.90
2018-06-17T11:35:16.347Z,9.10
2018-06-17T11:37:21.917Z,7.50
2018-06-17T11:39:26.597Z,8.00
2018-06-17T11:41:31.202Z,8.40
2018-06-17T11:43:35.791Z,10.00
2018-06-17T11:45:40.505Z,9.50
2018-06-17T11:47:45.082Z,8.80
2018-06-17T11:49:54.803Z,10.20
2018-06-17T11:52:17.277Z,9.30
2018-06-17T11:54:21.918Z,11.10
2018-06-17T11:56:26.552Z,13.40
2018-06-17T11:58:31.094Z,13.20
2018-06-17T12:00:35.781Z,15.70
2018-06-17T12:04:44.613Z,15.60
2018-06-17T12:06:49.608Z,16.30
2018-06-17T12:08:54.182Z,18.50
2018-06-17T12:10:58.972Z,18.10
2018-06-17T12:13:03.609Z,18.30
2018-06-17T12:15:08.261Z,16.80
2018-06-17T12:17:12.840Z,15.70
2018-06-17T12:19:17.426Z,18.10
2018-06-17T12:21:22.011Z,15.00
2018-06-17T12:23:26.748Z,12.90
2018-06-17T12:25:34.369Z,17.50
2018-06-17T12:27:39.006Z,15.50
2018-06-17T12:29:43.576Z,12.80
2018-06-17T12:31:48.206Z,17.60
2018-06-17T12:33:52.967Z,13.70
2018-06-17T12:35:57.723Z,16.90
2018-06-17T12:38:02.563Z,17.00
2018-06-17T12:40:07.793Z,19.00
2018-06-17T12:42:12.691Z,19.90
2018-06-17T12:44:17.856Z,18.10
2018-06-17T12:46:22.747Z,14.80
2018-06-17T12:48:27.610Z,13.10
2018-06-17T12:50:34.154Z,13.60
2018-06-17T12:52:39.732Z,14.30
2018-06-17T12:54:44.594Z,14.00
2018-06-17T12:56:49.313Z,15.20
2018-06-17T12:58:54.011Z,11.40
2018-06-17T13:00:58.715Z,11.70
2018-06-17T13:03:04.023Z,13.30
2018-06-17T13:05:08.699Z,13.20
2018-06-17T13:07:13.402Z,12.70
2018-06-17T13:09:18.836Z,14.60
2018-06-17T13:11:23.565Z,15.40
2018-06-17T13:13:29.048Z,11.90
2018-06-17T13:15:34.904Z,11.30
2018-06-17T13:17:39.566Z,14.00
2018-06-17T13:19:44.288Z,15.30
2018-06-17T13:21:49.286Z,11.70
2018-06-17T13:23:53.973Z,12.70
2018-06-17T13:25:58.718Z,11.00
2018-06-17T13:28:03.924Z,11.40
2018-06-17T13:30:09.263Z,11.20
2018-06-17T13:32:13.907Z,11.80
2018-06-17T13:34:21.084Z,13.20
2018-06-17T13:36:26.012Z,14.80
2018-06-17T13:38:31.961Z,14.50
2018-06-17T13:40:36.590Z,15.30
2018-06-17T13:42:41.355Z,15.40
2018-06-17T13:44:47.616Z,15.10
2018-06-17T13:46:53.281Z,15.00
2018-06-17T13:48:58.605Z,16.40
2018-06-17T13:51:03.478Z,16.70
2018-06-17T13:53:08.093Z,16.40
2018-06-17T13:55:12.870Z,17.30
2018-06-17T13:57:17.570Z,16.80
2018-06-17T13:59:22.270Z,15.90
2018-06-17T14:01:27.061Z,15.80
2018-06-17T14:03:31.832Z,14.10
2018-06-17T14:05:36.436Z,12.80
2018-06-17T14:07:41.142Z,15.80
2018-06-17T14:09:45.807Z,15.60
2018-06-17T14:11:50.450Z,13.30
2018-06-17T14:13:55.106Z,17.50
2018-06-17T14:15:59.725Z,14.40
2018-06-17T14:18:04.559Z,15.90
2018-06-17T14:20:09.238Z,14.90
2018-06-17T14:22:15.567Z,13.70
2018-06-17T14:24:20.300Z,13.90
2018-06-17T14:28:29.064Z,15.30
2018-06-17T14:30:33.699Z,15.90
2018-06-17T14:32:38.313Z,15.30
2018-06-17T14:34:43.087Z,15.50
2018-06-17T14:36:47.688Z,14.20
2018-06-17T14:38:52.338Z,15.50
2018-06-17T14:41:02.105Z,13.90
2018-06-17T14:43:12.008Z,15.80
2018-06-17T14:47:31.638Z,15.90
2018-06-17T14:49:41.512Z,15.20
2018-06-17T14:51:51.628Z,16.90
2018-06-17T14:53:56.285Z,15.60
2018-06-17T14:56:00.881Z,16.60
2018-06-17T14:58:05.912Z,17.00
2018-06-17T15:00:10.688Z,16.60
2018-06-17T15:02:15.308Z,17.90
2018-06-17T15:04:19.963Z,17.20
2018-06-17T15:06:24.484Z,17.20
2018-06-17T15:08:29.227Z,17.70
2018-06-17T15:10:33.793Z,17.80
2018-06-17T15:12:38.603Z,18.20
2018-06-17T15:14:43.289Z,17.90
2018-06-17T15:16:47.943Z,19.40
2018-06-17T15:18:52.562Z,18.50
2018-06-17T15:20:57.246Z,17.80
2018-06-17T15:23:01.819Z,17.10
2018-06-17T15:25:06.493Z,19.00
2018-06-17T15:27:11.110Z,17.00
2018-06-17T15:29:15.671Z,18.60
2018-06-17T15:31:25.451Z,18.40
2018-06-17T15:33:35.301Z,17.80
2018-06-17T15:35:45.322Z,19.30
2018-06-17T15:37:55.546Z,19.80
2018-06-17T15:40:03.547Z,16.70
2018-06-17T15:42:11.387Z,18.70
2018-06-17T15:44:21.967Z,16.00
2018-06-17T15:46:28.966Z,14.40
2018-06-17T15:48:34.693Z,13.60
2018-06-17T15:50:41.895Z,13.50
2018-06-17T15:52:46.525Z,14.50
2018-06-17T15:54:53.386Z,14.70
2018-06-17T15:56:59.336Z,14.60
2018-06-17T15:59:06.097Z,16.70
2018-06-17T16:01:10.892Z,16.40
2018-06-17T16:03:16.100Z,16.80
2018-06-17T16:05:22.033Z,19.00
2018-06-17T16:07:27.232Z,17.50
2018-06-17T16:09:31.829Z,16.90
2018-06-17T16:11:40.709Z,17.80
2018-06-17T16:13:50.374Z,19.30
2018-06-17T16:16:00.221Z,19.80
2018-06-17T16:18:11.592Z,21.00
2018-06-17T16:20:21.397Z,19.80
2018-06-17T16:22:26.100Z,19.30
2018-06-17T16:24:30.850Z,19.80
2018-06-17T16:26:35.639Z,19.60
2018-06-17T16:28:40.211Z,19.80
2018-06-17T16:30:44.937Z,21.00
2018-06-17T16:32:49.517Z,22.60
2018-06-17T16:34:54.323Z,20.90
2018-06-17T16:36:58.909Z,22.00
2018-06-17T16:39:04.153Z,21.90
2018-06-17T16:41:08.770Z,22.00
2018-06-17T16:43:13.495Z,20.60
2018-06-17T16:45:18.196Z,21.30
2018-06-17T16:47:23.044Z,20.50
2018-06-17T16:49:28.712Z,20.80
2018-06-17T16:51:38.543Z,19.70
2018-06-17T16:53:50.295Z,19.90
2018-06-17T16:56:00.077Z,19.60
2018-06-17T17:00:19.803Z,18.60
2018-06-17T17:04:28.670Z,17.40
2018-06-17T17:06:33.297Z,17.30
2018-06-17T17:08:39.477Z,18.60
2018-06-17T17:10:44.098Z,17.30
2018-06-17T17:12:48.727Z,16.20
2018-06-17T17:14:53.317Z,17.80
2018-06-17T17:16:58.035Z,16.30
2018-06-17T17:19:03.269Z,15.10
2018-06-17T17:21:14.116Z,15.90
2018-06-17T17:23:18.940Z,15.80
2018-06-17T17:25:23.827Z,16.20
2018-06-17T17:27:28.961Z,17.20
2018-06-17T17:29:33.606Z,16.60
2018-06-17T17:31:44.635Z,16.70
2018-06-17T17:36:03.059Z,16.80
2018-06-17T17:38:13.922Z,17.30
2018-06-17T17:40:23.704Z,16.30
2018-06-17T17:42:28.721Z,16.80
2018-06-17T17:44:39.019Z,16.50
2018-06-17T17:46:49.533Z,17.10
2018-06-17T17:48:55.429Z,17.20
2018-06-17T17:51:00.904Z,17.10
2018-06-17T17:53:06.737Z,17.30
2018-06-17T17:57:16.197Z,18.70
2018-06-17T17:59:21.471Z,18.40
2018-06-17T18:01:27.075Z,17.70
2018-06-17T18:03:32.208Z,17.50
2018-06-17T18:05:45.483Z,17.00
2018-06-17T18:07:56.095Z,18.40
2018-06-17T18:10:00.796Z,18.30
2018-06-17T18:12:05.544Z,18.40
2018-06-17T18:14:11.206Z,19.00
2018-06-17T18:16:26.652Z,19.80
2018-06-17T18:18:41.090Z,19.40
2018-06-17T18:20:52.964Z,19.70
2018-06-17T18:23:02.516Z,20.70
2018-06-17T18:25:15.016Z,21.30
2018-06-17T18:27:25.323Z,21.40
2018-06-17T18:29:35.080Z,21.20
2018-06-17T18:31:44.930Z,21.80
2018-06-17T18:33:54.616Z,21.50
2018-06-17T18:36:04.409Z,22.10
2018-06-17T18:38:09.101Z,21.20
2018-06-17T18:40:13.800Z,22.80
2018-06-17T18:42:18.723Z,22.20
2018-06-17T18:44:23.402Z,22.50
2018-06-17T18:46:27.982Z,22.40
2018-06-17T18:48:32.664Z,22.70
2018-06-17T18:50:37.397Z,22.50
2018-06-17T18:52:42.050Z,23.20
2018-06-17T18:54:46.648Z,23.00
2018-06-17T18:56:56.755Z,23.90
2018-06-17T18:59:07.426Z,23.40
2018-06-17T19:01:15.214Z,23.80
2018-06-17T19:03:23.254Z,22.70
2018-06-17T19:05:29.715Z,23.20
2018-06-17T19:07:41.990Z,23.10
2018-06-17T19:09:52.948Z,22.80
2018-06-17T19:12:06.052Z,23.00
2018-06-17T19:14:17.750Z,23.00
2018-06-17T19:16:28.837Z,23.40
2018-06-17T19:18:36.423Z,23.20
2018-06-17T19:20:42.268Z,24.20
2018-06-17T19:22:49.277Z,25.00
2018-06-17T19:24:54.081Z,24.70
2018-06-17T19:26:58.693Z,23.80
2018-06-17T19:29:03.481Z,23.90
2018-06-17T19:31:08.285Z,24.40
2018-06-17T19:33:12.996Z,24.00
2018-06-17T19:35:17.850Z,24.90
2018-06-17T19:37:23.336Z,24.60
2018-06-17T19:39:27.974Z,24.80
2018-06-17T19:41:32.549Z,24.40
2018-06-17T19:43:37.137Z,24.10
2018-06-17T19:45:41.809Z,23.40
2018-06-17T19:47:46.504Z,23.90
2018-06-17T19:49:57.191Z,25.00
2018-06-17T19:52:07.194Z,25.00
2018-06-17T19:55:20.563Z,25.60
2018-06-17T19:57:30.301Z,24.20
2018-06-17T19:59:39.983Z,24.60
2018-06-17T20:01:44.781Z,24.70
2018-06-17T20:03:49.625Z,24.30
2018-06-17T20:05:54.847Z,25.90
2018-06-17T20:07:59.649Z,25.00
2018-06-17T20:10:04.711Z,25.70
2018-06-17T20:12:09.407Z,25.00
2018-06-17T20:14:13.959Z,25.30
2018-06-17T20:16:19.383Z,25.60
2018-06-17T20:18:24.101Z,25.20
2018-06-17T20:20:28.679Z,25.90
2018-06-17T20:22:33.437Z,25.70
2018-06-17T20:24:38.035Z,26.30
2018-06-17T20:26:42.781Z,25.50
2018-06-17T20:28:47.463Z,25.70
2018-06-17T20:30:52.064Z,25.00
2018-06-17T20:33:01.984Z,25.80
2018-06-17T20:35:11.838Z,24.70
2018-06-17T20:37:21.757Z,25.10
2018-06-17T20:39:31.572Z,25.00
2018-06-17T20:41:41.577Z,24.80
2018-06-17T20:43:52.805Z,25.10
2018-06-17T20:45:57.914Z,25.50
2018-06-17T20:48:02.547Z,25.30
2018-06-17T20:50:07.095Z,25.30
2018-06-17T20:52:11.673Z,25.50
2018-06-17T20:54:16.256Z,25.50
2018-06-17T20:56:20.857Z,24.40
2018-06-17T20:58:25.503Z,25.50
2018-06-17T21:00:30.059Z,26.00
2018-06-17T21:02:34.686Z,25.80
2018-06-17T21:04:41.603Z,25.30
2018-06-17T21:06:46.147Z,24.50
2018-06-17T21:08:50.747Z,24.70
2018-06-17T21:10:55.801Z,25.60
2018-06-17T21:13:04.575Z,25.40
2018-06-17T21:15:14.419Z,25.40
2018-06-17T21:17:19.079Z,26.00
2018-06-17T21:19:28.951Z,26.20
2018-06-17T21:21:38.915Z,25.00
2018-06-17T21:23:48.753Z,25.00
2018-06-17T21:25:58.568Z,25.40
2018-06-17T21:28:03.280Z,26.40
2018-06-17T21:30:07.896Z,27.30
2018-06-17T21:32:12.783Z,27.80
2018-06-17T21:34:17.379Z,28.80
2018-06-17T21:36:21.954Z,29.00
2018-06-17T21:38:26.736Z,29.60
2018-06-17T21:40:31.337Z,29.50
2018-06-17T21:42:35.914Z,29.40
2018-06-17T21:44:40.552Z,29.50
2018-06-17T21:46:45.164Z,29.60
2018-06-17T21:48:49.817Z,30.00
2018-06-17T21:50:54.431Z,30.20
2018-06-17T21:52:59.070Z,30.80
2018-06-17T21:55:03.777Z,31.70
2018-06-17T21:57:08.388Z,33.60
2018-06-17T21:59:13.016Z,33.70
2018-06-17T22:01:19.188Z,34.90
2018-06-17T22:03:23.846Z,35.90
2018-06-17T22:05:28.505Z,36.90
2018-06-17T22:07:33.160Z,35.20
2018-06-17T22:09:43.040Z,36.10
2018-06-17T22:11:52.965Z,38.40
2018-06-17T22:14:02.945Z,40.30
2018-06-17T22:16:12.879Z,40.40
2018-06-17T22:18:17.476Z,41.10
2018-06-17T22:20:22.377Z,41.20
2018-06-17T22:22:26.960Z,40.00
2018-06-17T22:24:31.598Z,40.20
2018-06-17T22:26:36.228Z,40.20
2018-06-17T22:28:40.919Z,42.00
2018-06-17T22:30:45.570Z,42.30
2018-06-17T22:32:50.450Z,42.20
2018-06-17T22:34:55.167Z,42.20
2018-06-17T22:36:59.798Z,41.80
2018-06-17T22:39:06.456Z,42.20
2018-06-17T22:41:11.090Z,43.90
2018-06-17T22:43:15.761Z,43.40
2018-06-17T22:45:20.388Z,43.80
2018-06-17T22:47:30.222Z,42.70
2018-06-17T22:49:34.883Z,44.70
2018-06-17T22:51:39.841Z,44.30
2018-06-17T22:53:55.533Z,44.40
2018-06-17T22:56:00.263Z,44.10
2018-06-17T22:58:10.001Z,43.80
2018-06-17T23:00:19.952Z,44.10
2018-06-17T23:02:29.962Z,44.50
2018-06-17T23:04:39.843Z,44.60
2018-06-17T23:06:49.716Z,44.10
2018-06-17T23:08:59.676Z,44.10
2018-06-17T23:11:04.354Z,44.40
2018-06-17T23:13:09.058Z,44.80
2018-06-17T23:15:13.727Z,45.10
2018-06-17T23:17:18.338Z,45.10
2018-06-17T23:19:23.049Z,45.30
2018-06-17T23:21:27.684Z,45.30
2018-06-17T23:23:32.258Z,45.50
2018-06-17T23:25:36.890Z,45.80
2018-06-17T23:27:41.524Z,45.90
2018-06-17T23:29:46.141Z,45.70
2018-06-17T23:31:50.771Z,45.50
2018-06-17T23:33:55.594Z,45.60
2018-06-17T23:36:00.237Z,45.20
2018-06-17T23:38:04.963Z,45.60
2018-06-17T23:40:09.519Z,45.90
2018-06-17T23:42:14.179Z,46.10
2018-06-17T23:44:18.730Z,46.50
2018-06-17T23:46:28.570Z,46.40
2018-06-17T23:48:38.288Z,46.70
2018-06-17T23:50:48.211Z,46.50
2018-06-17T23:52:57.925Z,46.90
2018-06-17T23:55:07.830Z,46.70
2018-06-17T23:57:12.555Z,46.80
2018-06-17T23:59:17.169Z,46.60
